Aviation Digital Data Service (ADDS)

Output produced by METARs form (1302 UTC 19 January 2019)
found at http://www.aviationweather.gov/metar/data/
 
Forecast for: SBAR (ARACAJU/SANTA MA, BR)
Text: TAF SBAR 191000Z 1912/1924 12010KT 9999 SCT020 TX30/1915Z TN27/1923Z RMK PEA
Forecast period: 1200 UTC 19 January 2019 to 0000 UTC 20 January 2019
Forecast type: FROM: standard forecast or significant change
Winds: from the ESE (120 degrees) at 12 MPH (10 knots; 5.1 m/s)
Visibility: 6 or more miles 10+ km)
Ceiling: at least 12,000 feet AGL
Clouds: scattered clouds at 2000 feet AGL
Weather: PE  (moderate ice pellets)